Baucum, Arkansas
Current Conditions -  °F | °C
As of 8:53 AM on Sunday 21 Dec 2014 (Local Time) from KLIT Reporting Station
Haze Haze  
Wind Chill: 36°   Ceiling: 25000
Heat Index: 40°   Visibility: 6mi
Dew Point: 35°   Wind: 6mph
Humidity: 83%   Direction: 90°E
Pressure: 30.2"   Gusts: NA
Location:  34.757°N, 92.1411°W
Report Text: KLIT 211453Z 09005KT 6SM BR SCT080 BKN250 04/02 A3020 RMK AO2 SLP230 T00440017 58001
Loading
Personal Weather Stations






























Interactive Weather Map New forecast layout! Learn more

10-Day Weather Forecast

Advertisements
Track Severe Weather on mobile